createdAt,value
2022-10-25T00:02:03.151Z,2.50
2022-10-25T00:04:31.070Z,3.00
2022-10-25T00:06:59.226Z,4.25
2022-10-25T00:09:29.418Z,5.78
2022-10-25T00:11:57.296Z,3.78
2022-10-25T00:14:25.487Z,4.75
2022-10-25T00:16:54.792Z,12.20
2022-10-25T00:19:22.911Z,9.43
2022-10-25T00:21:50.890Z,5.55
2022-10-25T00:24:18.848Z,4.20
2022-10-25T00:26:47.026Z,4.97
2022-10-25T00:29:14.878Z,3.15
2022-10-25T00:31:45.019Z,2.85
2022-10-25T00:34:14.444Z,7.53
2022-10-25T00:36:42.298Z,8.30
2022-10-25T00:39:10.732Z,5.03
2022-10-25T00:41:38.746Z,9.13
2022-10-25T00:44:44.850Z,5.70
2022-10-25T00:47:19.145Z,9.38
2022-10-25T00:49:54.484Z,2.33
2022-10-25T00:52:23.081Z,3.28
2022-10-25T00:54:53.764Z,4.43
2022-10-25T00:57:30.844Z,8.52
2022-10-25T01:00:01.558Z,3.80
2022-10-25T01:02:29.711Z,6.20
2022-10-25T01:04:59.631Z,7.60
2022-10-25T01:07:27.624Z,9.48
2022-10-25T01:09:55.759Z,4.00
2022-10-25T01:12:23.941Z,6.15
2022-10-25T01:14:54.006Z,8.57
2022-10-25T01:17:30.925Z,5.35
2022-10-25T01:20:36.567Z,4.60
2022-10-25T01:23:19.037Z,6.07
2022-10-25T01:26:18.414Z,6.90
2022-10-25T01:29:06.720Z,9.88
2022-10-25T01:31:42.745Z,3.60
2022-10-25T01:34:16.476Z,6.97
2022-10-25T01:36:52.668Z,8.75
2022-10-25T01:39:26.404Z,11.95
2022-10-25T01:42:06.168Z,5.15
2022-10-25T01:44:43.645Z,4.50
2022-10-25T01:47:18.593Z,6.00
2022-10-25T01:49:51.676Z,7.38
2022-10-25T01:52:22.991Z,9.93
2022-10-25T01:54:51.138Z,7.57
2022-10-25T01:57:32.479Z,5.85
2022-10-25T02:00:11.519Z,7.47
2022-10-25T02:03:11.840Z,8.65
2022-10-25T02:05:50.198Z,8.77
2022-10-25T02:08:29.167Z,13.07
2022-10-25T02:11:06.701Z,8.07
2022-10-25T02:13:45.705Z,13.35
2022-10-25T02:16:18.317Z,11.18
2022-10-25T02:18:53.312Z,8.30
2022-10-25T02:21:23.814Z,11.18
2022-10-25T02:23:53.022Z,17.08
2022-10-25T02:26:22.553Z,14.27
2022-10-25T02:28:50.607Z,20.20
2022-10-25T02:31:20.921Z,21.92
2022-10-25T02:33:50.257Z,32.08
2022-10-25T02:36:21.692Z,26.15
2022-10-25T02:38:50.751Z,30.08
2022-10-25T02:41:19.587Z,29.55
2022-10-25T02:43:47.965Z,25.55
2022-10-25T02:46:18.379Z,31.95
2022-10-25T02:48:46.888Z,27.92
2022-10-25T02:51:17.401Z,35.95
2022-10-25T02:53:47.979Z,34.28
2022-10-25T02:56:19.312Z,55.50
2022-10-25T02:58:48.709Z,41.30
2022-10-25T03:01:18.157Z,48.33
2022-10-25T03:03:46.667Z,63.28
2022-10-25T03:06:16.494Z,61.80
2022-10-25T03:08:46.340Z,98.32
2022-10-25T03:11:17.052Z,91.22
2022-10-25T03:13:45.628Z,72.55
2022-10-25T03:16:13.793Z,62.00
2022-10-25T03:18:44.316Z,121.03
2022-10-25T03:21:12.398Z,53.67
2022-10-25T03:23:41.700Z,84.15
2022-10-25T03:26:09.725Z,50.35
2022-10-25T03:28:37.785Z,57.40
2022-10-25T03:31:12.360Z,62.05
2022-10-25T03:33:41.086Z,66.75
2022-10-25T03:36:09.243Z,64.05
2022-10-25T03:38:37.240Z,50.13
2022-10-25T03:41:07.364Z,66.70
2022-10-25T03:43:35.424Z,64.20
2022-10-25T03:46:03.387Z,58.88
2022-10-25T03:48:31.271Z,70.18
2022-10-25T03:51:02.036Z,63.50
2022-10-25T03:53:30.016Z,75.50
2022-10-25T03:55:58.046Z,65.43
2022-10-25T03:58:27.620Z,60.25
2022-10-25T04:00:55.654Z,59.05
2022-10-25T04:03:24.144Z,59.95
2022-10-25T04:05:51.992Z,66.60
2022-10-25T04:08:19.946Z,69.93
2022-10-25T04:10:48.594Z,66.45
2022-10-25T04:13:16.418Z,87.07
2022-10-25T04:15:46.121Z,62.05
2022-10-25T04:18:14.015Z,60.80
2022-10-25T04:20:42.033Z,76.43
2022-10-25T04:23:09.962Z,71.60
2022-10-25T04:25:40.402Z,62.08
2022-10-25T04:28:08.398Z,61.92
2022-10-25T04:30:38.674Z,56.38
2022-10-25T04:33:10.369Z,57.75
2022-10-25T04:35:38.445Z,87.40
2022-10-25T04:38:06.375Z,66.88
2022-10-25T04:40:34.463Z,82.50
2022-10-25T04:43:02.715Z,67.47
2022-10-25T04:45:30.949Z,81.55
2022-10-25T04:47:58.997Z,55.13
2022-10-25T04:50:30.278Z,64.97
2022-10-25T04:53:00.856Z,66.18
2022-10-25T04:55:28.722Z,65.63
2022-10-25T04:57:56.579Z,57.35
2022-10-25T05:00:25.357Z,59.90
2022-10-25T05:02:56.074Z,54.75
2022-10-25T05:05:25.646Z,68.15
2022-10-25T05:07:55.428Z,53.42
2022-10-25T05:10:23.442Z,57.85
2022-10-25T05:12:55.779Z,52.90
2022-10-25T05:15:26.821Z,51.97
2022-10-25T05:17:58.493Z,52.00
2022-10-25T05:20:26.689Z,42.78
2022-10-25T05:22:56.244Z,48.50
2022-10-25T05:25:24.246Z,50.42
2022-10-25T05:27:52.247Z,53.83
2022-10-25T05:30:20.346Z,56.05
2022-10-25T05:32:48.387Z,54.38
2022-10-25T05:35:16.477Z,50.38
2022-10-25T05:37:45.890Z,42.40
2022-10-25T05:40:18.174Z,48.13
2022-10-25T05:42:46.512Z,47.20
2022-10-25T05:45:14.602Z,51.92
2022-10-25T05:47:42.641Z,50.33
2022-10-25T05:50:10.784Z,52.60
2022-10-25T05:52:38.620Z,51.20
2022-10-25T05:55:07.343Z,53.75
2022-10-25T05:57:36.694Z,63.95
2022-10-25T06:00:05.783Z,56.85
2022-10-25T06:02:33.770Z,60.03
2022-10-25T06:05:03.084Z,69.00
2022-10-25T06:07:30.882Z,70.72
2022-10-25T06:09:58.758Z,69.40
2022-10-25T06:12:29.576Z,56.58
2022-10-25T06:14:59.046Z,65.03
2022-10-25T06:17:26.964Z,58.58
2022-10-25T06:19:55.180Z,59.65
2022-10-25T06:22:26.255Z,58.17
2022-10-25T06:24:54.536Z,64.45
2022-10-25T06:27:28.142Z,72.53
2022-10-25T06:29:56.109Z,57.70
2022-10-25T06:32:26.525Z,135.50
2022-10-25T06:34:54.383Z,61.83
2022-10-25T06:37:22.406Z,65.88
2022-10-25T06:39:50.377Z,82.38
2022-10-25T06:42:19.170Z,77.53
2022-10-25T06:48:13.843Z,71.38
2022-10-25T06:50:48.469Z,76.00
2022-10-25T06:53:23.332Z,74.93
2022-10-25T06:55:51.425Z,88.75
2022-10-25T06:58:19.477Z,81.60
2022-10-25T07:00:49.625Z,74.60
2022-10-25T07:03:19.233Z,82.75
2022-10-25T07:05:47.095Z,78.70
2022-10-25T07:08:15.051Z,75.35
2022-10-25T07:10:42.919Z,84.28
2022-10-25T07:13:10.912Z,70.05
2022-10-25T07:15:41.439Z,81.32
2022-10-25T07:18:11.271Z,82.30
2022-10-25T07:20:40.668Z,79.75
2022-10-25T07:23:08.917Z,74.60
2022-10-25T07:25:37.264Z,65.30
2022-10-25T07:28:05.540Z,68.63
2022-10-25T07:30:33.571Z,70.78
2022-10-25T07:33:03.142Z,59.75
2022-10-25T07:35:35.541Z,61.88
2022-10-25T07:38:13.202Z,57.08
2022-10-25T07:40:44.116Z,77.65
2022-10-25T07:43:11.930Z,60.45
2022-10-25T07:45:49.280Z,83.65
2022-10-25T07:48:18.787Z,47.20
2022-10-25T07:50:46.984Z,54.47
2022-10-25T07:53:19.737Z,49.97
2022-10-25T07:55:51.704Z,52.47
2022-10-25T07:58:20.201Z,45.95
2022-10-25T08:00:48.555Z,51.20
2022-10-25T08:03:18.305Z,39.28
2022-10-25T08:05:47.489Z,42.55
2022-10-25T08:08:16.202Z,48.22
2022-10-25T08:10:46.088Z,46.78
2022-10-25T08:13:13.969Z,38.80
2022-10-25T08:15:41.986Z,35.50
2022-10-25T08:18:10.694Z,34.05
2022-10-25T08:21:07.572Z,44.13
2022-10-25T08:23:26.665Z,34.22
2022-10-25T08:25:55.926Z,29.38
2022-10-25T08:28:24.010Z,32.67
2022-10-25T08:30:53.953Z,32.97
2022-10-25T08:33:49.056Z,29.60
2022-10-25T08:36:16.943Z,34.97
2022-10-25T08:38:47.886Z,31.83
2022-10-25T08:41:23.147Z,29.38
2022-10-25T08:44:13.292Z,67.40
2022-10-25T08:46:45.687Z,59.08
2022-10-25T08:49:22.303Z,42.80
2022-10-25T08:51:52.314Z,93.18
2022-10-25T08:54:25.525Z,26.30
2022-10-25T08:57:15.063Z,35.70
2022-10-25T08:59:48.154Z,42.33
2022-10-25T09:02:26.435Z,27.15
2022-10-25T09:04:54.953Z,25.85
2022-10-25T09:08:04.291Z,30.13
2022-10-25T09:10:42.996Z,22.83
2022-10-25T09:13:46.679Z,44.88
2022-10-25T09:16:47.515Z,21.90
2022-10-25T09:19:19.345Z,53.88
2022-10-25T09:21:51.593Z,18.92
2022-10-25T09:24:24.159Z,21.17
2022-10-25T09:27:05.134Z,21.67
2022-10-25T09:29:38.317Z,73.68
2022-10-25T09:32:16.795Z,74.80
2022-10-25T09:34:45.678Z,26.95
2022-10-25T09:37:18.668Z,20.00
2022-10-25T09:39:54.376Z,51.45
2022-10-25T09:42:27.411Z,28.45
2022-10-25T09:45:27.349Z,23.80
2022-10-25T09:48:30.230Z,47.28
2022-10-25T09:51:28.448Z,41.10
2022-10-25T09:54:10.762Z,26.38
2022-10-25T09:56:43.456Z,16.05
2022-10-25T09:59:15.607Z,24.95
2022-10-25T10:01:45.048Z,21.58
2022-10-25T10:04:26.811Z,50.03
2022-10-25T10:07:04.842Z,21.23
2022-10-25T10:09:33.587Z,13.73
2022-10-25T10:12:05.545Z,27.92
2022-10-25T10:15:06.867Z,13.55
2022-10-25T10:17:36.302Z,19.00
2022-10-25T10:20:15.818Z,32.55
2022-10-25T10:22:51.235Z,21.35
2022-10-25T10:25:27.206Z,21.73
2022-10-25T10:27:58.729Z,13.98
2022-10-25T10:30:29.049Z,18.30
2022-10-25T10:33:01.096Z,14.15
2022-10-25T10:35:32.379Z,17.63
2022-10-25T10:38:23.315Z,17.15
2022-10-25T10:40:52.405Z,15.82
2022-10-25T10:43:27.393Z,19.67
2022-10-25T10:46:02.541Z,15.38
2022-10-25T10:48:41.835Z,19.92
2022-10-25T10:51:43.056Z,20.45
2022-10-25T10:54:25.591Z,16.70
2022-10-25T10:56:58.710Z,17.30
2022-10-25T10:59:39.921Z,18.90
2022-10-25T11:02:25.343Z,16.20
2022-10-25T11:04:56.521Z,19.35
2022-10-25T11:07:30.537Z,17.65
2022-10-25T11:10:21.207Z,17.33
2022-10-25T11:13:07.239Z,17.08
2022-10-25T11:15:41.692Z,17.08
2022-10-25T11:18:13.201Z,19.35
2022-10-25T11:20:52.019Z,17.35
2022-10-25T11:23:31.657Z,19.02
2022-10-25T11:26:08.338Z,14.80
2022-10-25T11:28:47.067Z,16.05
2022-10-25T11:31:27.960Z,15.25
2022-10-25T11:34:10.179Z,12.23
2022-10-25T11:37:05.291Z,19.52
2022-10-25T11:39:48.343Z,17.73
2022-10-25T11:42:42.956Z,13.30
2022-10-25T11:45:23.200Z,15.82
2022-10-25T11:48:02.478Z,16.38
2022-10-25T11:50:40.059Z,17.35
2022-10-25T11:53:25.019Z,17.15
2022-10-25T11:55:57.554Z,15.75
2022-10-25T11:58:36.288Z,12.85
2022-10-25T12:01:16.159Z,20.08
2022-10-25T12:04:00.311Z,13.30
2022-10-25T12:06:37.924Z,8.75
2022-10-25T12:09:16.566Z,12.40
2022-10-25T12:11:48.504Z,12.50
2022-10-25T12:14:25.175Z,15.13
2022-10-25T12:16:53.295Z,10.05
2022-10-25T12:19:27.265Z,12.43
2022-10-25T12:22:01.900Z,15.70
2022-10-25T12:24:43.918Z,16.13
2022-10-25T12:27:13.956Z,15.50
2022-10-25T12:29:53.640Z,20.13
2022-10-25T12:32:24.472Z,9.30
2022-10-25T12:34:55.342Z,11.55
2022-10-25T12:37:30.630Z,12.43
2022-10-25T12:40:01.300Z,9.70
2022-10-25T12:42:33.993Z,12.98
2022-10-25T12:45:41.998Z,12.88
2022-10-25T12:48:22.870Z,14.95
2022-10-25T12:51:09.500Z,9.65
2022-10-25T12:54:12.978Z,10.77
2022-10-25T12:56:56.987Z,10.32
2022-10-25T12:59:40.888Z,13.13
2022-10-25T13:02:25.648Z,8.00
2022-10-25T13:05:29.639Z,9.00
2022-10-25T13:08:00.109Z,10.48
2022-10-25T13:10:29.163Z,13.52
2022-10-25T13:13:04.720Z,11.95
2022-10-25T13:15:43.201Z,10.75
2022-10-25T13:18:27.363Z,8.40
2022-10-25T13:20:55.842Z,11.35
2022-10-25T13:24:00.728Z,8.38
2022-10-25T13:26:34.642Z,13.65
2022-10-25T13:29:25.440Z,9.73
2022-10-25T13:32:10.328Z,10.43
2022-10-25T13:34:40.422Z,7.57
2022-10-25T13:37:47.758Z,12.50
2022-10-25T13:40:25.732Z,13.95
2022-10-25T13:43:03.946Z,11.10
2022-10-25T13:45:40.207Z,10.52
2022-10-25T13:48:17.852Z,11.65
2022-10-25T13:50:48.933Z,24.30
2022-10-25T13:53:22.767Z,20.63
2022-10-25T13:55:59.723Z,14.88
2022-10-25T13:58:44.362Z,12.68
2022-10-25T14:02:00.694Z,21.73
2022-10-25T14:04:40.442Z,14.75
2022-10-25T14:07:43.456Z,11.13
2022-10-25T14:10:22.276Z,13.75
2022-10-25T14:12:53.795Z,16.38
2022-10-25T14:15:38.464Z,15.77
2022-10-25T14:18:18.223Z,11.88
2022-10-25T14:20:54.782Z,12.68
2022-10-25T14:23:26.408Z,13.07
2022-10-25T14:25:59.157Z,17.15
2022-10-25T14:28:31.723Z,16.15
2022-10-25T14:31:01.696Z,15.95
2022-10-25T14:33:32.083Z,16.85
2022-10-25T14:36:12.437Z,15.00
2022-10-25T14:38:52.419Z,15.10
2022-10-25T14:41:25.375Z,13.77
2022-10-25T14:43:53.950Z,17.25
2022-10-25T14:46:23.198Z,10.73
2022-10-25T14:48:55.416Z,17.63
2022-10-25T14:51:28.116Z,19.17
2022-10-25T14:53:58.893Z,14.18
2022-10-25T14:56:30.933Z,15.27
2022-10-25T14:58:59.375Z,16.75
2022-10-25T15:01:27.881Z,16.20
2022-10-25T15:04:00.346Z,15.23
2022-10-25T15:06:32.719Z,18.98
2022-10-25T15:12:24.909Z,17.65
2022-10-25T15:14:53.474Z,13.65
2022-10-25T15:17:29.128Z,14.35
2022-10-25T15:20:02.949Z,16.25
2022-10-25T15:22:35.027Z,19.50
2022-10-25T15:25:24.174Z,16.13
2022-10-25T15:27:55.862Z,21.17
2022-10-25T15:30:57.695Z,15.55
2022-10-25T15:33:59.078Z,24.90
2022-10-25T15:36:35.111Z,15.50
2022-10-25T15:42:27.319Z,16.67
2022-10-25T15:44:55.669Z,22.15
2022-10-25T15:47:30.050Z,24.25
2022-10-25T15:49:58.812Z,18.63
2022-10-25T15:52:27.266Z,19.25
2022-10-25T15:54:56.551Z,20.42
2022-10-25T15:57:27.452Z,18.40
2022-10-25T15:59:55.394Z,20.27
2022-10-25T16:02:27.032Z,21.00
2022-10-25T16:04:55.076Z,24.42
2022-10-25T16:07:23.318Z,30.38
2022-10-25T16:09:52.214Z,36.25
2022-10-25T16:12:26.224Z,24.40
2022-10-25T16:14:54.551Z,21.98
2022-10-25T16:17:22.683Z,25.40
2022-10-25T16:19:50.660Z,24.00
2022-10-25T16:22:18.690Z,25.95
2022-10-25T16:25:04.055Z,16.45
2022-10-25T16:27:33.446Z,22.10
2022-10-25T16:30:19.407Z,15.32
2022-10-25T16:32:47.997Z,22.13
2022-10-25T16:35:18.791Z,19.92
2022-10-25T16:37:46.953Z,13.82
2022-10-25T16:40:16.700Z,19.45
2022-10-25T16:42:46.735Z,29.08
2022-10-25T16:45:18.639Z,27.35
2022-10-25T16:47:46.673Z,18.15
2022-10-25T16:50:15.110Z,20.42
2022-10-25T16:52:43.205Z,22.17
2022-10-25T16:55:11.917Z,16.52
2022-10-25T16:57:39.781Z,21.30
2022-10-25T17:00:11.014Z,23.42
2022-10-25T17:02:39.340Z,17.23
2022-10-25T17:05:08.552Z,21.88
2022-10-25T17:07:38.034Z,25.73
2022-10-25T17:10:10.436Z,23.13
2022-10-25T17:12:44.091Z,22.63
2022-10-25T17:15:14.275Z,14.77
2022-10-25T17:17:42.931Z,24.98
2022-10-25T17:20:13.074Z,17.08
2022-10-25T17:22:43.265Z,15.95
2022-10-25T17:25:12.650Z,18.30
2022-10-25T17:27:45.471Z,17.88
2022-10-25T17:30:17.333Z,27.25
2022-10-25T17:32:45.461Z,17.08
2022-10-25T17:35:13.650Z,17.15
2022-10-25T17:37:43.697Z,15.27
2022-10-25T17:40:13.800Z,21.65
2022-10-25T17:42:41.684Z,14.82
2022-10-25T17:45:10.555Z,18.52
2022-10-25T17:47:42.612Z,19.63
2022-10-25T17:50:14.973Z,18.75
2022-10-25T17:52:43.048Z,21.67
2022-10-25T17:55:11.843Z,19.52
2022-10-25T17:57:39.953Z,14.48
2022-10-25T18:00:14.096Z,15.85
2022-10-25T18:02:50.487Z,20.05
2022-10-25T18:05:20.984Z,24.25
2022-10-25T18:07:50.007Z,17.77
2022-10-25T18:10:18.386Z,11.80
2022-10-25T18:12:46.921Z,17.98
2022-10-25T18:15:15.152Z,12.85
2022-10-25T18:17:47.969Z,14.68
2022-10-25T18:20:17.244Z,13.95
2022-10-25T18:22:45.819Z,7.97
2022-10-25T18:25:13.785Z,11.15
2022-10-25T18:27:42.066Z,11.10
2022-10-25T18:30:11.852Z,11.88
2022-10-25T18:32:39.919Z,18.65
2022-10-25T18:35:10.411Z,15.43
2022-10-25T18:37:38.349Z,12.63
2022-10-25T18:40:08.053Z,14.93
2022-10-25T18:42:36.270Z,15.18
2022-10-25T18:45:05.468Z,15.60
2022-10-25T18:47:33.470Z,14.85
2022-10-25T18:50:01.504Z,14.23
2022-10-25T18:52:30.681Z,10.98
2022-10-25T18:54:58.673Z,15.63
2022-10-25T18:57:26.658Z,9.57
2022-10-25T18:59:54.576Z,15.13
2022-10-25T19:02:22.534Z,11.05
2022-10-25T19:04:51.086Z,15.25
2022-10-25T19:07:18.958Z,11.05
2022-10-25T19:09:48.367Z,11.48
2022-10-25T19:12:19.097Z,9.43
2022-10-25T19:14:49.347Z,12.88
2022-10-25T19:17:17.563Z,6.88
2022-10-25T19:19:45.701Z,6.88
2022-10-25T19:22:14.955Z,8.20
2022-10-25T19:24:43.990Z,8.85
2022-10-25T19:27:13.197Z,6.13
2022-10-25T19:29:41.533Z,7.55
2022-10-25T19:32:09.692Z,3.33
2022-10-25T19:34:37.779Z,2.70
2022-10-25T19:37:08.251Z,4.13
2022-10-25T19:39:37.881Z,4.88
2022-10-25T19:42:06.166Z,5.18
2022-10-25T19:44:35.385Z,2.42
2022-10-25T19:47:03.421Z,4.50
2022-10-25T19:49:31.375Z,2.67
2022-10-25T19:51:59.500Z,1.40
2022-10-25T19:54:27.476Z,2.25
2022-10-25T19:56:55.620Z,2.28
2022-10-25T19:59:23.676Z,4.93
2022-10-25T20:01:53.139Z,3.33
2022-10-25T20:04:21.508Z,1.90
2022-10-25T20:06:49.462Z,1.20
2022-10-25T20:09:17.610Z,1.38
2022-10-25T20:11:49.053Z,2.45
2022-10-25T20:14:17.021Z,1.40
2022-10-25T20:16:45.873Z,1.42
2022-10-25T20:19:15.319Z,1.40
2022-10-25T20:21:43.755Z,1.42
2022-10-25T20:24:12.220Z,1.27
2022-10-25T20:26:42.252Z,1.80
2022-10-25T20:29:18.646Z,1.35
2022-10-25T20:31:53.092Z,1.73
2022-10-25T20:34:27.839Z,4.28
2022-10-25T20:36:55.796Z,1.08
2022-10-25T20:39:23.784Z,1.67
2022-10-25T20:41:55.009Z,6.78
2022-10-25T20:44:26.232Z,4.88
2022-10-25T20:46:54.360Z,2.60
2022-10-25T20:49:23.717Z,1.83
2022-10-25T20:51:54.011Z,1.80
2022-10-25T20:54:21.869Z,1.23
2022-10-25T20:56:49.659Z,5.65
2022-10-25T20:59:20.064Z,3.17
2022-10-25T21:01:48.173Z,1.30
2022-10-25T21:04:25.724Z,2.70
2022-10-25T21:07:05.482Z,5.32
2022-10-25T21:09:33.283Z,2.80
2022-10-25T21:12:01.506Z,1.65
2022-10-25T21:14:29.576Z,1.88
2022-10-25T21:16:57.474Z,1.45
2022-10-25T21:19:25.523Z,1.52
2022-10-25T21:21:53.475Z,2.38
2022-10-25T21:24:22.841Z,1.60
2022-10-25T21:26:51.760Z,2.33
2022-10-25T21:29:19.817Z,1.67
2022-10-25T21:31:49.190Z,7.95
2022-10-25T21:36:46.213Z,1.95
2022-10-25T21:39:32.249Z,4.13
2022-10-25T21:42:13.153Z,1.50
2022-10-25T21:44:41.359Z,5.45
2022-10-25T21:47:09.228Z,4.25
2022-10-25T21:49:37.236Z,2.50
2022-10-25T21:52:07.506Z,1.25
2022-10-25T21:54:36.128Z,2.75
2022-10-25T21:57:04.162Z,9.50
2022-10-25T21:59:33.356Z,1.30
2022-10-25T22:02:01.461Z,3.03
2022-10-25T22:04:29.468Z,5.25
2022-10-25T22:06:57.496Z,2.08
2022-10-25T22:09:25.660Z,1.45
2022-10-25T22:11:53.703Z,2.30
2022-10-25T22:14:21.637Z,1.52
2022-10-25T22:16:50.961Z,2.40
2022-10-25T22:19:20.919Z,2.28
2022-10-25T22:21:51.387Z,4.15
2022-10-25T22:24:19.409Z,4.25
2022-10-25T22:26:50.650Z,1.30
2022-10-25T22:29:18.720Z,3.47
2022-10-25T22:31:46.680Z,3.72
2022-10-25T22:34:16.025Z,2.67
2022-10-25T22:36:43.878Z,1.60
2022-10-25T22:39:12.055Z,2.92
2022-10-25T22:41:40.116Z,3.38
2022-10-25T22:44:08.455Z,1.33
2022-10-25T22:46:36.899Z,2.00
2022-10-25T22:49:07.361Z,1.40
2022-10-25T22:51:37.480Z,4.15
2022-10-25T22:54:05.674Z,3.05
2022-10-25T22:56:34.634Z,2.13
2022-10-25T22:59:05.934Z,2.10
2022-10-25T23:01:35.571Z,1.30
2022-10-25T23:04:04.561Z,2.65
2022-10-25T23:06:35.307Z,1.33
2022-10-25T23:09:08.962Z,1.85
2022-10-25T23:11:39.119Z,2.78
2022-10-25T23:14:13.380Z,1.27
2022-10-25T23:16:44.556Z,1.20
2022-10-25T23:19:12.493Z,1.75
2022-10-25T23:21:40.498Z,1.48
2022-10-25T23:24:11.070Z,1.88
2022-10-25T23:26:39.070Z,3.72
2022-10-25T23:29:07.064Z,1.35
2022-10-25T23:31:35.181Z,2.65
2022-10-25T23:34:02.972Z,2.90
2022-10-25T23:36:37.764Z,4.32
2022-10-25T23:39:07.325Z,3.70
2022-10-25T23:41:36.630Z,1.20
2022-10-25T23:44:04.816Z,1.52
2022-10-25T23:46:32.770Z,4.82
2022-10-25T23:49:00.797Z,1.75
2022-10-25T23:51:29.075Z,1.70
2022-10-25T23:53:57.114Z,2.50
2022-10-25T23:56:25.121Z,1.70
2022-10-25T23:58:54.557Z,2.92
